Time;durP1;ratioP1;P1;durP2;ratioP2;P2;SDS_P1;SDS_P2;PMS_P1;PMS_P2;Temp;Humidity;BMP_temperature;BMP_pressure;BME280_temperature;BME280_humidity;BME280_pressure;Samples;Min_cycle;Max_cycle;Signal;HPM_P1;HPM_P2
2023/03/19 00:03:46;;;;;;;42.30;20.80;;;;;;;3.40;55.14;98877.26;222104;1280;24401;-75
2023/03/19 00:08:51;;;;;;;41.10;20.00;;;;;;;3.36;55.27;98879.58;222123;1282;22526;-75
2023/03/19 00:14:03;;;;;;;38.80;21.00;;;;;;;3.32;55.31;98878.74;222243;1282;22564;-75
2023/03/19 00:19:07;;;;;;;39.60;20.90;;;;;;;3.26;55.17;98883.64;222102;1276;22559;-75
2023/03/19 00:24:25;;;;;;;45.30;23.10;;;;;;;3.20;55.38;98881.92;222135;1276;24920;-75
2023/03/19 00:29:27;;;;;;;44.20;22.50;;;;;;;3.14;55.51;98875.49;222245;1270;22647;-74
2023/03/19 00:34:32;;;;;;;43.30;23.20;;;;;;;3.07;55.44;98875.75;222161;1279;22566;-72
2023/03/19 00:39:49;;;;;;;39.60;21.50;;;;;;;3.02;55.88;98867.87;222177;1279;22530;-74
2023/03/19 00:44:53;;;;;;;42.00;21.70;;;;;;;2.97;55.54;98872.51;222025;1275;25281;-74
2023/03/19 00:50:05;;;;;;;45.10;23.50;;;;;;;2.93;55.96;98868.40;222126;1281;22638;-75
2023/03/19 00:55:31;;;;;;;43.70;23.60;;;;;;;2.89;56.12;98866.68;221984;1280;22598;-74
2023/03/19 01:00:37;;;;;;;45.10;23.80;;;;;;;2.86;56.23;98869.17;222230;1282;22559;-74
2023/03/19 01:05:40;;;;;;;47.30;23.30;;;;;;;2.83;56.27;98872.73;222058;1274;22599;-74
2023/03/19 01:10:46;;;;;;;44.90;23.80;;;;;;;2.80;56.50;98871.25;222188;1282;22695;-76
2023/03/19 01:15:56;;;;;;;45.70;23.70;;;;;;;2.76;56.20;98871.41;222234;1261;23316;-75
2023/03/19 01:21:07;;;;;;;45.70;23.50;;;;;;;2.71;56.54;98867.33;222141;1279;25298;-75
2023/03/19 01:26:17;;;;;;;41.50;22.50;;;;;;;2.65;56.29;98867.40;222167;1282;22687;-74
2023/03/19 01:31:22;;;;;;;36.20;19.60;;;;;;;2.61;56.83;98863.79;222313;1282;22531;-74
2023/03/19 01:36:41;;;;;;;42.50;21.50;;;;;;;2.55;56.80;98863.20;222191;1282;24534;-74
2023/03/19 01:41:43;;;;;;;37.90;19.00;;;;;;;2.52;57.04;98867.15;222159;1263;22605;-75
2023/03/19 01:47:34;;;;;;;36.20;18.90;;;;;;;2.49;57.11;98862.23;222244;1281;22527;-74
2023/03/19 01:53:03;;;;;;;33.20;18.00;;;;;;;2.47;57.41;98863.36;222106;1281;23004;-75
2023/03/19 01:58:27;;;;;;;35.10;18.90;;;;;;;2.46;57.64;98862.09;222090;1282;22543;-73
2023/03/19 02:04:06;;;;;;;35.10;18.00;;;;;;;2.44;57.79;98859.89;221849;1282;22558;-75
2023/03/19 02:09:13;;;;;;;36.80;19.80;;;;;;;2.41;57.66;98863.75;222233;1259;22895;-75
2023/03/19 02:14:29;;;;;;;34.90;19.10;;;;;;;2.38;57.96;98865.72;222431;1282;22542;-74
2023/03/19 02:19:49;;;;;;;36.50;19.80;;;;;;;2.36;58.08;98874.65;222210;1277;22615;-74
2023/03/19 02:25:02;;;;;;;35.50;19.70;;;;;;;2.33;58.33;98874.20;222013;1281;24286;-74
2023/03/19 02:30:30;;;;;;;38.80;20.10;;;;;;;2.30;58.28;98877.97;222304;1278;26119;-75
2023/03/19 02:35:36;;;;;;;40.30;20.70;;;;;;;2.25;58.48;98880.09;222204;1277;25506;-75
2023/03/19 02:41:09;;;;;;;38.60;20.40;;;;;;;2.21;58.76;98884.19;222280;1258;23363;-75
2023/03/19 02:46:14;;;;;;;42.20;21.70;;;;;;;2.15;58.91;98881.02;222258;1262;23262;-75
2023/03/19 02:51:50;;;;;;;39.70;21.50;;;;;;;2.10;59.22;98878.23;222110;1278;22738;-74
2023/03/19 02:56:55;;;;;;;41.40;21.10;;;;;;;2.05;59.41;98876.45;222006;1281;22555;-75
2023/03/19 03:01:58;;;;;;;39.40;21.10;;;;;;;2.02;59.60;98884.73;221922;1267;22540;-75
2023/03/19 03:07:22;;;;;;;41.70;20.20;;;;;;;1.97;59.74;98889.33;221715;1275;23387;-74
2023/03/19 03:12:45;;;;;;;35.70;19.90;;;;;;;1.92;59.88;98893.59;221467;1272;22571;-73
2023/03/19 03:17:48;;;;;;;41.00;19.00;;;;;;;1.89;60.47;98892.51;221191;1287;22540;-73
2023/03/19 03:23:04;;;;;;;;;;;;;;;;;;;;;
2023/03/19 03:28:07;;;;;;;28.70;16.10;;;;;;;1.87;61.04;98895.59;221804;1284;22553;-73
2023/03/19 03:33:15;;;;;;;40.90;20.90;;;;;;;1.89;61.29;98893.69;221751;1284;26339;-75
2023/03/19 03:38:22;;;;;;;41.50;22.50;;;;;;;1.88;62.01;98895.83;222064;1284;22569;-75
2023/03/19 03:43:25;;;;;;;40.50;22.10;;;;;;;1.85;61.72;98886.73;221733;1284;22595;-74
2023/03/19 03:48:28;;;;;;;35.30;21.30;;;;;;;1.84;62.56;98891.34;221864;1282;25356;-75
2023/03/19 03:53:32;;;;;;;33.40;19.60;;;;;;;1.81;62.62;98892.78;222648;1279;22578;-75
2023/03/19 03:58:40;;;;;;;31.40;18.10;;;;;;;1.77;63.10;98891.73;222191;1281;22645;-74
2023/03/19 04:03:44;;;;;;;30.60;18.30;;;;;;;1.72;63.41;98886.98;222238;1281;23963;-74
2023/03/19 04:08:47;;;;;;;32.50;18.90;;;;;;;1.71;63.34;98891.87;222241;1275;22524;-75
2023/03/19 04:13:51;;;;;;;29.60;17.40;;;;;;;1.70;63.90;98888.88;222377;1274;22637;-75
2023/03/19 04:18:54;;;;;;;30.40;19.00;;;;;;;1.67;64.15;98893.58;222320;1274;22538;-74
2023/03/19 04:23:57;;;;;;;34.20;20.20;;;;;;;1.65;64.40;98894.81;222315;1278;22579;-74
2023/03/19 04:29:02;;;;;;;33.70;19.60;;;;;;;1.63;64.38;98895.72;222339;1262;22614;-75
2023/03/19 04:34:05;;;;;;;37.00;20.10;;;;;;;1.59;64.60;98885.80;222211;1282;22845;-74
2023/03/19 04:39:08;;;;;;;41.00;23.20;;;;;;;1.60;64.75;98886.41;222194;1279;23153;-75
2023/03/19 04:44:14;;;;;;;43.90;25.00;;;;;;;1.59;64.91;98878.17;222307;1259;23296;-76
2023/03/19 04:49:18;;;;;;;49.50;27.00;;;;;;;1.56;64.84;98883.29;222106;1281;23339;-74
2023/03/19 04:54:21;;;;;;;51.40;27.90;;;;;;;1.52;65.23;98881.32;222298;1281;22590;-76
2023/03/19 04:59:25;;;;;;;54.50;31.10;;;;;;;1.50;65.49;98881.52;222262;1278;24587;-75
2023/03/19 05:04:29;;;;;;;51.40;28.60;;;;;;;1.48;65.70;98875.64;222312;1264;23278;-74
2023/03/19 05:09:36;;;;;;;55.30;31.90;;;;;;;1.47;66.03;98881.44;222229;1274;25437;-75
2023/03/19 05:14:39;;;;;;;55.30;30.20;;;;;;;1.49;66.19;98882.80;222115;1279;22542;-74
2023/03/19 05:19:47;;;;;;;51.30;29.90;;;;;;;1.53;66.19;98887.00;222202;1279;23387;-74
2023/03/19 05:24:51;;;;;;;57.30;30.60;;;;;;;1.56;66.70;98890.06;222223;1275;25292;-73
2023/03/19 05:30:00;;;;;;;48.50;27.90;;;;;;;1.61;66.83;98892.23;222165;1280;25309;-74
2023/03/19 05:35:21;;;;;;;46.80;26.70;;;;;;;1.66;66.86;98893.83;222175;1278;25343;-73
2023/03/19 05:40:24;;;;;;;49.50;27.50;;;;;;;1.76;67.13;98898.52;222338;1278;23619;-73
2023/03/19 05:45:30;;;;;;;50.90;29.20;;;;;;;1.86;67.28;98896.84;222242;1262;22959;-73
2023/03/19 05:50:46;;;;;;;50.40;30.20;;;;;;;1.97;67.13;98900.73;222443;1278;22552;-75
2023/03/19 05:55:53;;;;;;;48.40;29.50;;;;;;;2.11;67.05;98902.05;222257;1278;22624;-75
2023/03/19 06:00:57;;;;;;;54.50;30.60;;;;;;;2.25;67.34;98901.82;222342;1264;24423;-74
2023/03/19 06:06:04;;;;;;;53.40;30.40;;;;;;;2.43;67.34;98907.07;222218;1281;22543;-74
2023/03/19 06:11:11;;;;;;;61.90;34.60;;;;;;;2.62;67.58;98901.53;222373;1277;22670;-76
2023/03/19 06:16:14;;;;;;;58.70;34.20;;;;;;;2.82;67.48;98908.15;222240;1280;22623;-76
2023/03/19 06:21:29;;;;;;;56.90;32.60;;;;;;;3.05;67.57;98915.48;222340;1279;22554;-75
2023/03/19 06:26:36;;;;;;;51.60;29.80;;;;;;;3.34;67.66;98919.61;222083;1280;23123;-74
2023/03/19 06:31:44;;;;;;;49.80;29.30;;;;;;;3.70;67.69;98915.47;222232;1281;22708;-74
2023/03/19 06:37:00;;;;;;;51.70;30.40;;;;;;;4.14;67.80;98917.11;222231;1282;22699;-73
2023/03/19 06:42:03;;;;;;;50.80;30.30;;;;;;;4.58;67.65;98918.66;222221;1277;22585;-74
2023/03/19 06:47:15;;;;;;;50.00;27.90;;;;;;;5.03;67.73;98917.96;222217;1282;22534;-74
2023/03/19 06:52:17;;;;;;;44.30;25.40;;;;;;;5.47;67.55;98916.73;222232;1278;22583;-75
2023/03/19 06:57:29;;;;;;;36.30;20.70;;;;;;;5.92;67.09;98916.91;222128;1280;22944;-74
2023/03/19 07:02:32;;;;;;;21.80;14.10;;;;;;;6.30;66.28;98919.68;222258;1277;22734;-74
2023/03/19 07:07:37;;;;;;;23.40;14.90;;;;;;;6.53;65.37;98918.20;222269;1281;22685;-75
2023/03/19 07:12:46;;;;;;;23.10;14.30;;;;;;;6.71;64.94;98913.77;222338;1274;22563;-74
2023/03/19 07:17:52;;;;;;;19.10;12.70;;;;;;;6.85;64.70;98913.04;222127;1281;22689;-75
2023/03/19 07:23:00;;;;;;;21.10;12.00;;;;;;;6.99;64.14;98918.71;222268;1281;22608;-74
2023/03/19 07:28:03;;;;;;;32.00;20.00;;;;;;;7.17;63.98;98916.67;222151;1279;25261;-76
2023/03/19 07:33:07;;;;;;;18.90;13.30;;;;;;;7.39;63.90;98918.29;222093;1281;23855;-74
2023/03/19 07:38:09;;;;;;;19.20;13.00;;;;;;;7.62;63.63;98920.19;222224;1278;22553;-75
2023/03/19 07:43:11;;;;;;;19.10;12.60;;;;;;;7.85;63.36;98918.62;222208;1281;24401;-75
2023/03/19 07:48:15;;;;;;;19.70;13.50;;;;;;;8.09;62.81;98926.92;222223;1265;25435;-76
2023/03/19 07:53:19;;;;;;;16.80;11.50;;;;;;;8.36;62.96;98918.23;222318;1264;23264;-75
2023/03/19 07:58:44;;;;;;;19.00;13.10;;;;;;;8.57;61.80;98915.13;222327;1271;22527;-75
2023/03/19 08:03:51;;;;;;;18.20;12.20;;;;;;;8.89;62.28;98917.43;222311;1281;22527;-76
2023/03/19 08:08:57;;;;;;;16.40;11.50;;;;;;;9.14;61.60;98909.20;222187;1274;22619;-75
2023/03/19 08:14:02;;;;;;;14.10;10.30;;;;;;;9.35;61.65;98908.11;222198;1265;22648;-75
2023/03/19 08:19:08;;;;;;;13.00;9.40;;;;;;;9.64;61.11;98908.30;222297;1275;22585;-75
2023/03/19 08:24:14;;;;;;;13.60;7.70;;;;;;;9.89;60.46;98907.23;222110;1272;23657;-75
2023/03/19 08:29:29;;;;;;;;;;;;;;;;;;;;;
2023/03/19 08:34:38;;;;;;;9.00;6.60;;;;;;;10.33;59.15;98899.69;222149;1281;26069;-74
2023/03/19 08:39:40;;;;;;;9.30;6.80;;;;;;;10.52;58.12;98899.19;222232;1277;23035;-76
2023/03/19 08:44:43;;;;;;;12.20;9.90;;;;;;;10.66;57.95;98901.42;222168;1281;22608;-75
2023/03/19 08:49:50;;;;;;;10.90;6.90;;;;;;;11.01;57.93;98896.86;222254;1281;24292;-75
2023/03/19 08:54:53;;;;;;;8.90;6.50;;;;;;;11.31;56.85;98896.05;222259;1280;22578;-75
2023/03/19 08:59:56;;;;;;;8.30;6.40;;;;;;;11.57;56.84;98896.84;222185;1281;23336;-75
2023/03/19 09:05:00;;;;;;;7.20;5.70;;;;;;;11.82;55.94;98901.64;222224;1281;23684;-76
2023/03/19 09:10:04;;;;;;;7.90;6.20;;;;;;;11.91;55.01;98903.04;222117;1281;25334;-75
2023/03/19 09:15:11;;;;;;;8.00;6.70;;;;;;;12.11;55.10;98911.56;222130;1280;22543;-75
2023/03/19 09:20:21;;;;;;;9.40;6.70;;;;;;;12.44;55.45;98908.08;222225;1279;22526;-75
2023/03/19 09:25:38;;;;;;;8.10;6.00;;;;;;;12.75;54.74;98900.98;222689;1281;22549;-76
2023/03/19 09:31:05;;;;;;;7.10;6.20;;;;;;;13.05;54.76;98890.83;222140;1280;24997;-75
2023/03/19 09:36:10;;;;;;;7.60;6.60;;;;;;;13.30;54.27;98884.85;222003;1268;22549;-76
2023/03/19 09:41:25;;;;;;;9.30;7.10;;;;;;;13.50;53.98;98880.99;222080;1283;22530;-77
2023/03/19 09:46:37;;;;;;;8.30;6.70;;;;;;;13.51;52.77;98881.55;222275;1265;23251;-75
2023/03/19 09:52:19;;;;;;;10.00;6.50;;;;;;;13.67;53.04;98884.37;222189;1283;22530;-76
2023/03/19 09:57:23;;;;;;;8.80;7.00;;;;;;;13.88;52.09;98882.64;222242;1261;23261;-75
2023/03/19 10:02:41;;;;;;;9.20;6.40;;;;;;;14.09;52.18;98873.08;222269;1281;22542;-76
2023/03/19 10:08:08;;;;;;;9.50;6.50;;;;;;;14.37;51.89;98874.06;222671;1281;25388;-75
2023/03/19 10:13:38;;;;;;;9.00;7.10;;;;;;;14.64;51.27;98866.38;222203;1270;22585;-75
2023/03/19 10:18:46;;;;;;;7.20;5.90;;;;;;;14.73;50.97;98862.08;222337;1282;165640;-75
2023/03/19 10:23:56;;;;;;;10.00;6.40;;;;;;;14.95;50.92;98855.97;222246;1282;24176;-75
2023/03/19 10:29:29;;;;;;;8.50;5.90;;;;;;;15.00;50.20;98851.66;222165;1268;22559;-75
2023/03/19 10:34:36;;;;;;;7.80;6.30;;;;;;;15.08;50.24;98852.91;222194;1282;22634;-75
2023/03/19 10:39:44;;;;;;;7.90;6.40;;;;;;;15.20;50.29;98849.10;223284;1280;22573;-75
2023/03/19 10:45:04;;;;;;;8.10;6.60;;;;;;;15.35;50.11;98845.05;222193;1265;23764;-75
2023/03/19 10:50:16;;;;;;;7.50;6.10;;;;;;;15.49;49.91;98838.53;222275;1278;22661;-75
2023/03/19 10:55:28;;;;;;;8.30;6.40;;;;;;;15.59;49.52;98827.02;222704;1282;22534;-75
2023/03/19 11:00:34;;;;;;;7.90;6.40;;;;;;;15.71;49.23;98823.05;222207;1281;22599;-75
2023/03/19 11:05:36;;;;;;;8.80;6.90;;;;;;;15.78;49.07;98814.70;222225;1281;22947;-75
2023/03/19 11:10:46;;;;;;;10.10;7.00;;;;;;;15.84;48.89;98801.02;222230;1281;22736;-75
2023/03/19 11:15:52;;;;;;;10.30;6.70;;;;;;;16.04;48.98;98794.83;222165;1278;22649;-75
2023/03/19 11:21:07;;;;;;;7.50;6.00;;;;;;;16.22;48.70;98783.30;222340;1281;24312;-75
2023/03/19 11:26:18;;;;;;;7.60;6.70;;;;;;;16.22;46.73;98775.79;222331;1281;22663;-75
2023/03/19 11:31:36;;;;;;;9.20;6.90;;;;;;;16.08;47.66;98768.23;222224;1280;22576;-75
2023/03/19 11:37:04;;;;;;;9.10;6.60;;;;;;;16.27;47.89;98765.38;222164;1280;22686;-75
2023/03/19 11:42:41;;;;;;;10.30;6.60;;;;;;;16.43;47.72;98769.96;222208;1281;22553;-76
2023/03/19 11:48:25;;;;;;;8.70;6.90;;;;;;;16.48;47.36;98762.19;222219;1281;22616;-75
2023/03/19 11:53:52;;;;;;;10.40;7.50;;;;;;;16.56;47.11;98750.84;222180;1281;22579;-75
2023/03/19 11:59:13;;;;;;;9.80;7.60;;;;;;;16.66;47.12;98744.35;222153;1281;22547;-76
2023/03/19 12:04:40;;;;;;;8.20;6.90;;;;;;;16.76;46.89;98739.11;222326;1281;23135;-76
2023/03/19 12:10:25;;;;;;;11.00;7.50;;;;;;;16.85;46.07;98733.56;222371;1278;22565;-75
2023/03/19 12:15:41;;;;;;;11.00;7.70;;;;;;;16.78;45.84;98731.69;222231;1278;22749;-75
2023/03/19 12:21:05;;;;;;;9.40;7.40;;;;;;;16.83;45.86;98730.10;222167;1281;25483;-76
2023/03/19 12:26:31;;;;;;;9.90;7.90;;;;;;;16.85;45.70;98726.95;222253;1279;22568;-75
2023/03/19 12:31:46;;;;;;;11.80;8.80;;;;;;;16.90;45.17;98717.25;222320;1281;23271;-75
2023/03/19 12:36:56;;;;;;;10.00;7.90;;;;;;;17.13;46.27;98717.04;222207;1279;22583;-75
2023/03/19 12:42:02;;;;;;;12.30;8.30;;;;;;;17.35;45.84;98712.22;222304;1281;24185;-75
2023/03/19 12:47:12;;;;;;;11.80;8.20;;;;;;;17.42;45.65;98712.63;222190;1282;22533;-75
2023/03/19 12:52:28;;;;;;;10.50;7.70;;;;;;;17.46;45.38;98716.30;222128;1282;22534;-75
2023/03/19 12:57:50;;;;;;;11.20;7.70;;;;;;;17.39;44.58;98715.08;222180;1281;25290;-75
2023/03/19 13:03:17;;;;;;;9.90;7.50;;;;;;;17.24;44.59;98703.89;222296;1271;23213;-75
2023/03/19 13:08:43;;;;;;;8.00;6.70;;;;;;;17.17;44.21;98707.15;222423;1282;24311;-75
2023/03/19 13:14:00;;;;;;;10.30;7.40;;;;;;;17.04;44.23;98710.53;222375;1275;22661;-75
2023/03/19 13:19:18;;;;;;;8.40;6.90;;;;;;;16.87;44.43;98715.05;222266;1281;22553;-75
2023/03/19 13:24:33;;;;;;;9.40;6.60;;;;;;;16.72;44.12;98714.92;222295;1279;24254;-76
2023/03/19 13:29:37;;;;;;;8.80;6.80;;;;;;;16.72;44.99;98707.90;222166;1279;24197;-75
2023/03/19 13:34:40;;;;;;;7.80;6.30;;;;;;;16.76;44.57;98697.75;222225;1279;25369;-77
2023/03/19 13:39:47;;;;;;;8.30;5.80;;;;;;;16.79;44.56;98688.94;222219;1279;22554;-76
2023/03/19 13:44:55;;;;;;;7.60;5.90;;;;;;;16.70;43.79;98685.11;222947;1281;25398;-75
2023/03/19 13:50:14;;;;;;;10.30;6.10;;;;;;;16.56;44.35;98682.35;222167;1282;24234;-75
2023/03/19 13:55:45;;;;;;;9.30;6.20;;;;;;;16.51;44.52;98668.17;222228;1278;25290;-74
2023/03/19 14:00:58;;;;;;;8.80;5.80;;;;;;;16.51;44.56;98659.64;222421;1281;23133;-75
2023/03/19 14:06:02;;;;;;;7.80;6.20;;;;;;;16.47;44.48;98657.94;222669;1279;22546;-75
2023/03/19 14:11:06;;;;;;;14.50;5.90;;;;;;;16.45;44.77;98654.17;222315;1272;22568;-75
2023/03/19 14:16:25;;;;;;;6.50;5.40;;;;;;;16.45;44.78;98648.63;222208;1282;22564;-75
2023/03/19 14:21:41;;;;;;;7.70;5.80;;;;;;;16.41;44.43;98645.69;222743;1282;22572;-75
2023/03/19 14:26:48;;;;;;;6.60;5.20;;;;;;;16.41;44.91;98646.42;222136;1282;22640;-75
2023/03/19 14:31:55;;;;;;;8.00;5.80;;;;;;;16.47;45.02;98643.70;222241;1279;23412;-75
2023/03/19 14:37:24;;;;;;;6.60;5.30;;;;;;;16.51;44.76;98643.05;222530;1281;25294;-75
2023/03/19 14:42:38;;;;;;;7.30;5.80;;;;;;;16.49;44.64;98638.15;222289;1265;22529;-76
2023/03/19 14:48:01;;;;;;;8.50;5.70;;;;;;;16.44;44.69;98635.64;222404;1282;22527;-75
2023/03/19 14:53:13;;;;;;;6.50;4.90;;;;;;;16.41;44.54;98636.79;222202;1282;25353;-74
2023/03/19 14:58:19;;;;;;;7.00;5.00;;;;;;;16.39;44.54;98638.91;222160;1276;23801;-75
2023/03/19 15:03:32;;;;;;;6.00;4.90;;;;;;;16.36;44.64;98634.80;222249;1280;23241;-74
2023/03/19 15:08:38;;;;;;;6.90;4.60;;;;;;;16.33;44.70;98633.54;222331;1282;22694;-76
2023/03/19 15:14:04;;;;;;;8.20;5.30;;;;;;;16.24;44.37;98635.55;222233;1280;23220;-75
2023/03/19 15:19:11;;;;;;;6.70;5.40;;;;;;;16.08;44.59;98634.97;222314;1282;22656;-76
2023/03/19 15:24:16;;;;;;;6.40;5.20;;;;;;;15.98;44.72;98633.70;222224;1282;24255;-74
2023/03/19 15:29:31;;;;;;;7.00;5.10;;;;;;;15.84;44.67;98640.42;222319;1282;22971;-75
2023/03/19 15:34:36;;;;;;;6.00;5.00;;;;;;;15.73;44.62;98651.23;222192;1282;22570;-76
2023/03/19 15:39:50;;;;;;;6.20;4.50;;;;;;;15.64;45.10;98640.27;222608;1282;22614;-75
2023/03/19 15:45:11;;;;;;;7.60;5.20;;;;;;;15.55;45.05;98630.21;223148;1275;22584;-75
2023/03/19 15:50:19;;;;;;;7.70;5.10;;;;;;;15.45;45.25;98638.83;222232;1276;22624;-74
2023/03/19 15:55:26;;;;;;;6.60;4.80;;;;;;;15.35;45.36;98641.27;222273;1282;22968;-75
2023/03/19 16:00:34;;;;;;;9.50;5.00;;;;;;;15.22;45.64;98639.26;222282;1281;22732;-76
2023/03/19 16:05:40;;;;;;;6.30;4.60;;;;;;;15.08;46.08;98651.77;222375;1282;22545;-75
2023/03/19 16:10:44;;;;;;;5.20;4.40;;;;;;;14.95;46.18;98657.59;222347;1279;24484;-76
2023/03/19 16:15:52;;;;;;;5.90;4.30;;;;;;;14.75;46.04;98657.35;222452;1280;26129;-75
2023/03/19 16:21:13;;;;;;;6.70;4.40;;;;;;;14.56;46.18;98657.62;222563;1280;22559;-76
2023/03/19 16:26:20;;;;;;;6.90;4.40;;;;;;;14.36;46.69;98656.68;222327;1275;24378;-75
2023/03/19 16:31:27;;;;;;;7.00;4.40;;;;;;;14.15;47.09;98657.30;222242;1277;22534;-76
2023/03/19 16:36:35;;;;;;;;;;;;;;;13.95;47.32;98666.81;222210;1282;22975;-74
2023/03/19 16:41:37;;;;;;;5.70;4.70;;;;;;;13.74;47.66;98664.34;222329;1277;22948;-75
2023/03/19 16:46:40;;;;;;;9.00;4.60;;;;;;;13.53;47.83;98667.23;222181;1281;22544;-74
2023/03/19 16:51:46;;;;;;;6.70;4.50;;;;;;;13.30;48.14;98671.06;222197;1279;22629;-75
2023/03/19 16:56:49;;;;;;;5.90;4.80;;;;;;;13.07;48.41;98678.91;222110;1269;25473;-74
2023/03/19 17:01:52;;;;;;;9.00;4.90;;;;;;;12.84;48.75;98684.68;222147;1280;22582;-75
2023/03/19 17:06:58;;;;;;;11.70;8.40;;;;;;;12.62;49.19;98693.09;222206;1277;24386;-74
2023/03/19 17:12:11;;;;;;;11.20;8.20;;;;;;;12.42;49.31;98699.50;222133;1280;22548;-74
2023/03/19 17:17:28;;;;;;;10.30;6.20;;;;;;;12.17;49.69;98697.87;222273;1281;22551;-75
2023/03/19 17:22:31;;;;;;;13.40;7.80;;;;;;;11.91;50.47;98702.06;222573;1282;24274;-74
2023/03/19 17:27:35;;;;;;;11.30;8.60;;;;;;;11.67;50.73;98710.13;222163;1282;22662;-75
2023/03/19 17:32:44;;;;;;;13.60;9.10;;;;;;;11.46;50.82;98713.14;222235;1280;22566;-75
2023/03/19 17:37:49;;;;;;;17.30;10.60;;;;;;;11.27;51.09;98716.52;222477;1282;22584;-74
2023/03/19 17:42:55;;;;;;;17.20;10.70;;;;;;;11.10;51.48;98720.65;222208;1280;22617;-74
2023/03/19 17:47:57;;;;;;;18.50;12.30;;;;;;;10.92;51.73;98723.69;222224;1275;25338;-75
2023/03/19 17:53:05;;;;;;;18.90;12.70;;;;;;;10.76;52.03;98719.77;222172;1282;22642;-75
2023/03/19 17:58:14;;;;;;;18.90;10.50;;;;;;;10.59;52.30;98718.89;222172;1282;24247;-75
2023/03/19 18:03:30;;;;;;;19.20;11.80;;;;;;;10.40;53.10;98721.63;222617;1280;22532;-75
2023/03/19 18:08:42;;;;;;;31.80;19.20;;;;;;;10.18;53.43;98722.48;222003;1280;22674;-74
2023/03/19 18:13:48;;;;;;;22.20;14.30;;;;;;;10.00;53.72;98721.98;222097;1277;25406;-74
2023/03/19 18:18:51;;;;;;;22.20;13.20;;;;;;;9.83;53.86;98729.17;222042;1259;22535;-75
2023/03/19 18:23:57;;;;;;;22.10;12.70;;;;;;;9.71;53.99;98738.43;222196;1279;22644;-73
2023/03/19 18:29:15;;;;;;;21.50;13.80;;;;;;;9.60;54.22;98733.06;222092;1280;24240;-74
2023/03/19 18:34:18;;;;;;;29.30;16.70;;;;;;;9.49;54.38;98731.21;222155;1280;22537;-75
2023/03/19 18:39:21;;;;;;;28.90;17.20;;;;;;;9.38;55.11;98735.71;222052;1282;25086;-73
2023/03/19 18:44:24;;;;;;;28.10;17.10;;;;;;;9.26;54.81;98741.87;221995;1280;22569;-74
2023/03/19 18:49:27;;;;;;;26.70;17.50;;;;;;;9.14;55.15;98740.23;222039;1281;22797;-75
2023/03/19 18:54:36;;;;;;;29.20;18.20;;;;;;;9.03;55.30;98744.56;222202;1276;22649;-74
2023/03/19 18:59:41;;;;;;;29.30;19.70;;;;;;;8.92;55.42;98746.77;222110;1280;22693;-74
2023/03/19 19:04:44;;;;;;;32.90;21.30;;;;;;;8.80;55.77;98750.75;222339;1278;24363;-74
2023/03/19 19:09:50;;;;;;;35.80;23.80;;;;;;;8.68;56.18;98756.71;221878;1281;24234;-74
2023/03/19 19:14:52;;;;;;;42.40;26.80;;;;;;;8.55;56.79;98755.47;222145;1275;22570;-74
2023/03/19 19:19:55;;;;;;;57.70;35.10;;;;;;;8.40;57.15;98754.39;222157;1280;25565;-74
2023/03/19 19:24:58;;;;;;;54.30;34.60;;;;;;;8.27;57.39;98755.30;222256;1281;22549;-74
2023/03/19 19:30:05;;;;;;;56.30;33.60;;;;;;;8.18;57.89;98748.80;222019;1281;24671;-74
2023/03/19 19:35:22;;;;;;;47.70;30.30;;;;;;;8.11;57.79;98745.19;222094;1281;22692;-74
2023/03/19 19:40:30;;;;;;;48.90;28.00;;;;;;;8.04;57.72;98741.70;222392;1281;23408;-75
2023/03/19 19:45:36;;;;;;;43.70;27.90;;;;;;;8.04;58.11;98746.33;222193;1281;24239;-74
2023/03/19 19:50:41;;;;;;;45.10;27.30;;;;;;;8.01;58.29;98746.97;223021;1280;24311;-75
2023/03/19 19:55:45;;;;;;;45.40;27.50;;;;;;;7.99;58.29;98746.34;222225;1281;23946;-74
2023/03/19 20:00:49;;;;;;;48.40;29.10;;;;;;;7.97;58.42;98751.48;222242;1279;24258;-74
2023/03/19 20:06:08;;;;;;;48.50;29.40;;;;;;;7.95;58.54;98749.24;222235;1279;22524;-74
2023/03/19 20:11:22;;;;;;;48.70;29.80;;;;;;;7.96;58.56;98751.09;222135;1282;22601;-75
2023/03/19 20:16:28;;;;;;;77.30;46.20;;;;;;;8.00;58.94;98747.71;222263;1276;22577;-74
2023/03/19 20:21:31;;;;;;;59.50;34.00;;;;;;;8.01;58.91;98749.04;222141;1280;22596;-73
2023/03/19 20:26:46;;;;;;;58.70;34.10;;;;;;;8.02;59.09;98754.47;222143;1281;23280;-74
2023/03/19 20:31:56;;;;;;;66.90;35.60;;;;;;;8.03;59.27;98756.06;222203;1267;24284;-75
2023/03/19 20:36:59;;;;;;;68.40;38.50;;;;;;;8.02;59.63;98759.29;222163;1276;22560;-74
2023/03/19 20:42:04;;;;;;;65.30;36.90;;;;;;;8.01;59.33;98764.17;222234;1281;22569;-73
2023/03/19 20:47:16;;;;;;;69.70;38.70;;;;;;;7.99;59.57;98768.67;222381;1282;24277;-76
2023/03/19 20:52:21;;;;;;;74.40;40.20;;;;;;;7.99;59.31;98765.61;222259;1274;24305;-74
2023/03/19 20:57:28;;;;;;;76.70;41.30;;;;;;;7.97;59.73;98765.65;222246;1281;22574;-74
2023/03/19 21:02:30;;;;;;;76.30;43.50;;;;;;;7.93;59.55;98763.04;222703;1281;24399;-75
2023/03/19 21:07:34;;;;;;;78.90;42.30;;;;;;;7.89;59.84;98765.90;222179;1268;22616;-75
2023/03/19 21:12:36;;;;;;;72.70;40.00;;;;;;;7.86;60.21;98766.06;222222;1281;23051;-74
2023/03/19 21:17:40;;;;;;;66.10;36.80;;;;;;;7.86;59.99;98763.27;222306;1280;24357;-74
2023/03/19 21:22:44;;;;;;;56.90;32.40;;;;;;;7.91;60.35;98767.41;222159;1280;23685;-74
2023/03/19 21:27:51;;;;;;;56.50;32.30;;;;;;;7.94;60.19;98767.60;222250;1280;23064;-74
2023/03/19 21:32:55;;;;;;;49.00;27.80;;;;;;;7.89;60.15;98768.37;222721;1275;22557;-74
2023/03/19 21:38:01;;;;;;;46.80;26.60;;;;;;;7.82;60.34;98773.95;222316;1282;23327;-74
2023/03/19 21:43:04;;;;;;;50.00;26.40;;;;;;;7.77;60.53;98771.81;222296;1274;24228;-74
2023/03/19 21:48:28;;;;;;;45.90;24.50;;;;;;;7.76;60.39;98773.98;222456;1274;25234;-74
2023/03/19 21:53:33;;;;;;;45.10;24.40;;;;;;;7.73;60.83;98769.83;222159;1276;22690;-75
2023/03/19 21:58:50;;;;;;;38.40;22.50;;;;;;;7.69;60.48;98768.66;222123;1280;22580;-74
2023/03/19 22:03:56;;;;;;;34.20;19.90;;;;;;;7.71;60.82;98768.09;222117;1281;23118;-74
2023/03/19 22:09:00;;;;;;;34.90;17.60;;;;;;;7.76;60.91;98770.30;222618;1278;22556;-73
2023/03/19 22:14:18;;;;;;;28.90;17.50;;;;;;;7.83;60.84;98767.98;222186;1282;22562;-74
2023/03/19 22:19:25;;;;;;;25.90;15.40;;;;;;;7.88;60.87;98765.52;222088;1281;214999;-74
2023/03/19 22:24:27;;;;;;;28.20;16.50;;;;;;;7.92;60.91;98766.82;222429;1281;22865;-74
2023/03/19 22:29:31;;;;;;;35.50;21.60;;;;;;;7.87;60.56;98763.52;222280;1282;23456;-74
2023/03/19 22:34:34;;;;;;;41.20;22.70;;;;;;;7.70;60.74;98754.59;222242;1282;22545;-74
2023/03/19 22:39:36;;;;;;;46.50;26.00;;;;;;;7.52;60.89;98748.36;222259;1279;22985;-74
2023/03/19 22:44:40;;;;;;;47.20;26.60;;;;;;;7.37;61.36;98745.59;222125;1281;23068;-74
2023/03/19 22:50:16;;;;;;;48.10;27.00;;;;;;;7.25;61.39;98746.36;222310;1281;22553;-75
2023/03/19 22:55:22;;;;;;;46.40;26.00;;;;;;;7.16;61.39;98744.02;222211;1281;22560;-75
2023/03/19 23:00:27;;;;;;;45.20;25.40;;;;;;;7.10;61.70;98741.58;222281;1281;22556;-74
2023/03/19 23:05:35;;;;;;;41.30;25.70;;;;;;;7.04;62.19;98734.45;222244;1281;22547;-74
2023/03/19 23:10:47;;;;;;;47.70;27.20;;;;;;;6.97;62.03;98741.00;222096;1281;22541;-76
2023/03/19 23:15:55;;;;;;;44.70;26.50;;;;;;;6.92;62.29;98744.68;222133;1281;22665;-74
2023/03/19 23:20:58;;;;;;;41.30;23.60;;;;;;;6.89;62.48;98744.25;222645;1278;25245;-74
2023/03/19 23:26:03;;;;;;;40.70;23.90;;;;;;;6.88;62.44;98745.54;222294;1280;22750;-74
2023/03/19 23:31:08;;;;;;;44.50;23.70;;;;;;;6.86;62.58;98749.10;222208;1282;22598;-73
2023/03/19 23:36:15;;;;;;;43.70;24.30;;;;;;;6.83;62.67;98749.08;222620;1280;25228;-73
2023/03/19 23:41:25;;;;;;;40.80;23.80;;;;;;;6.76;62.94;98741.90;222196;1276;24273;-75
2023/03/19 23:46:33;;;;;;;36.80;22.10;;;;;;;6.70;62.84;98742.42;222091;1273;24185;-73
2023/03/19 23:51:36;;;;;;;36.30;21.80;;;;;;;6.67;63.18;98741.34;222165;1280;22585;-73
2023/03/19 23:56:47;;;;;;;37.70;22.30;;;;;;;6.64;63.20;98743.88;222181;1281;25118;-73
